createdAt,value
2023-02-05T00:08:42.305Z,8.63
2023-02-05T00:18:45.957Z,8.60
2023-02-05T00:28:48.902Z,9.40
2023-02-05T00:38:52.207Z,10.40
2023-02-05T00:48:56.215Z,8.47
2023-02-05T00:59:00.486Z,9.27
2023-02-05T01:09:03.674Z,9.80
2023-02-05T01:19:06.573Z,9.10
2023-02-05T01:29:09.527Z,10.57
2023-02-05T01:39:12.888Z,9.57
2023-02-05T01:49:31.355Z,10.30
2023-02-05T01:59:37.334Z,10.53
2023-02-05T02:09:45.049Z,9.27
2023-02-05T02:20:00.410Z,9.77
2023-02-05T02:30:10.579Z,11.03
2023-02-05T02:40:20.365Z,10.03
2023-02-05T02:50:36.172Z,9.73
2023-02-05T03:00:40.581Z,9.83
2023-02-05T03:11:09.779Z,9.10
2023-02-05T03:21:19.308Z,9.10
2023-02-05T03:31:58.755Z,9.20
2023-02-05T03:42:10.017Z,8.93
2023-02-05T03:52:18.616Z,9.57
2023-02-05T04:02:22.511Z,10.63
2023-02-05T04:12:25.581Z,12.77
2023-02-05T04:22:29.119Z,11.80
2023-02-05T04:32:32.038Z,11.67
2023-02-05T04:42:35.244Z,12.10
2023-02-05T04:52:38.377Z,13.03
2023-02-05T05:02:41.276Z,13.30
2023-02-05T05:12:44.019Z,14.93
2023-02-05T05:22:47.171Z,15.87
2023-02-05T05:32:49.995Z,16.47
2023-02-05T05:43:13.768Z,17.17
2023-02-05T05:53:16.598Z,15.90
2023-02-05T06:03:19.242Z,17.07
2023-02-05T06:13:22.239Z,17.93
2023-02-05T06:23:24.947Z,19.97
2023-02-05T06:33:28.231Z,22.87
2023-02-05T06:43:31.215Z,24.60
2023-02-05T06:53:34.231Z,26.23
2023-02-05T07:03:37.146Z,29.47
2023-02-05T07:13:39.804Z,31.60
2023-02-05T07:23:42.634Z,30.93
2023-02-05T07:33:46.677Z,32.03
2023-02-05T07:43:53.639Z,30.73
2023-02-05T07:53:56.685Z,26.33
2023-02-05T08:03:59.818Z,24.53
2023-02-05T08:14:03.307Z,18.57
2023-02-05T08:24:06.619Z,15.70
2023-02-05T08:34:10.471Z,13.00
2023-02-05T08:44:13.566Z,12.87
2023-02-05T08:54:16.757Z,13.13
2023-02-05T09:04:22.156Z,7.83
2023-02-05T09:14:25.208Z,4.17
2023-02-05T09:24:28.368Z,1.40
2023-02-05T09:34:32.896Z,0.73
2023-02-05T09:44:42.059Z,0.93
2023-02-05T09:54:48.781Z,0.77
2023-02-05T10:04:55.093Z,0.30
2023-02-05T10:15:10.173Z,0.30
2023-02-05T10:25:32.093Z,0.40
2023-02-05T10:35:59.921Z,0.27
2023-02-05T10:46:02.936Z,0.30
2023-02-05T10:56:06.900Z,0.27
2023-02-05T11:06:11.804Z,0.30
2023-02-05T11:16:15.782Z,0.27
2023-02-05T11:26:21.352Z,0.43
2023-02-05T11:36:25.471Z,1.07
2023-02-05T11:46:42.564Z,1.27
2023-02-05T11:57:17.786Z,1.00
2023-02-05T12:07:22.294Z,1.63
2023-02-05T12:17:41.988Z,1.50
2023-02-05T12:28:22.462Z,1.60
2023-02-05T12:38:43.527Z,2.37
2023-02-05T12:49:12.032Z,1.90
2023-02-05T12:59:28.065Z,1.83
2023-02-05T13:10:02.323Z,1.63
2023-02-05T13:20:08.445Z,1.50
2023-02-05T13:30:21.974Z,1.80
2023-02-05T13:40:30.422Z,1.50
2023-02-05T13:50:42.643Z,3.20
2023-02-05T14:00:49.544Z,3.40
2023-02-05T14:11:04.275Z,9.20
2023-02-05T14:21:31.702Z,2.67
2023-02-05T14:31:48.916Z,2.20
2023-02-05T14:41:59.425Z,2.50
2023-02-05T14:52:17.055Z,2.50
2023-02-05T15:02:58.851Z,2.80
2023-02-05T15:13:29.483Z,2.40
2023-02-05T15:23:36.381Z,2.43
2023-02-05T15:34:03.578Z,2.20
2023-02-05T15:44:20.339Z,3.50
2023-02-05T15:54:27.550Z,2.00
2023-02-05T16:04:35.562Z,1.67
2023-02-05T16:14:38.027Z,2.80
2023-02-05T16:24:43.034Z,1.83
2023-02-05T16:34:45.953Z,1.87
2023-02-05T16:44:50.004Z,2.07
2023-02-05T16:54:53.159Z,1.70
2023-02-05T17:04:58.063Z,2.63
2023-02-05T17:15:23.651Z,3.30
2023-02-05T17:25:37.703Z,3.23
2023-02-05T17:35:40.662Z,2.90
2023-02-05T17:45:45.940Z,2.50
2023-02-05T17:55:49.138Z,2.10
2023-02-05T18:05:52.938Z,3.87
2023-02-05T18:16:01.708Z,2.80
2023-02-05T18:26:06.603Z,3.33
2023-02-05T18:36:12.536Z,2.77
2023-02-05T18:46:21.277Z,2.60
2023-02-05T18:56:25.937Z,2.53
2023-02-05T19:06:28.339Z,2.90
2023-02-05T19:16:32.526Z,2.57
2023-02-05T19:26:36.746Z,2.90
2023-02-05T19:36:39.289Z,2.70
2023-02-05T19:46:44.308Z,2.57
2023-02-05T19:56:46.972Z,2.97
2023-02-05T20:06:49.582Z,2.53
2023-02-05T20:16:53.049Z,2.17
2023-02-05T20:26:56.796Z,2.40
2023-02-05T20:37:04.387Z,1.97
2023-02-05T20:47:08.503Z,2.60
2023-02-05T20:57:10.668Z,2.90
2023-02-05T21:07:13.128Z,3.03
2023-02-05T21:17:15.533Z,2.30
2023-02-05T21:27:17.620Z,2.43
2023-02-05T21:37:19.750Z,2.63
2023-02-05T21:47:22.141Z,2.60
2023-02-05T21:57:24.907Z,3.33
2023-02-05T22:07:27.025Z,2.97
2023-02-05T22:17:29.348Z,2.87
2023-02-05T22:27:31.978Z,4.33
2023-02-05T22:37:34.056Z,3.03
2023-02-05T22:47:36.492Z,2.67
2023-02-05T22:57:39.801Z,2.60
2023-02-05T23:07:42.072Z,2.60
2023-02-05T23:17:44.700Z,3.83
2023-02-05T23:27:47.135Z,3.13
2023-02-05T23:37:49.588Z,3.27
2023-02-05T23:47:51.773Z,2.83
2023-02-05T23:57:54.163Z,2.90
